Time;durP1;ratioP1;P1;durP2;ratioP2;P2;SDS_P1;SDS_P2;PMS_P1;PMS_P2;Temp;Humidity;BMP_temperature;BMP_pressure;BME280_temperature;BME280_humidity;BME280_pressure;Samples;Min_cycle;Max_cycle;Signal;HPM_P1;HPM_P2
2022/10/09 00:01:17;;;;;;;4.90;2.17;;;;;;;-145.23;100.00;58621.06;5006887;28;20376;-53
2022/10/09 00:03:46;;;;;;;3.00;1.50;;;;;;;-145.23;100.00;58621.06;5011141;28;20243;-52
2022/10/09 00:06:14;;;;;;;2.63;1.70;;;;;;;-145.23;100.00;58621.06;4998739;28;20245;-52
2022/10/09 00:08:42;;;;;;;1.60;1.47;;;;;;;-145.23;100.00;58621.06;4998910;28;20238;-52
2022/10/09 00:11:10;;;;;;;3.33;2.10;;;;;;;-145.23;100.00;58621.06;4999449;28;20246;-53
2022/10/09 00:13:38;;;;;;;3.23;1.70;;;;;;;-145.23;100.00;58621.06;4991650;28;20241;-54
2022/10/09 00:16:06;;;;;;;3.23;1.80;;;;;;;-145.23;100.00;58621.06;5006577;28;20240;-53
2022/10/09 00:18:33;;;;;;;3.23;1.93;;;;;;;-145.23;100.00;58621.06;4993288;28;20234;-54
2022/10/09 00:20:59;;;;;;;1.87;1.73;;;;;;;-145.23;100.00;58621.06;4999288;28;20248;-53
2022/10/09 00:23:26;;;;;;;3.90;2.07;;;;;;;-145.23;100.00;58621.06;4993115;28;20229;-52
2022/10/09 00:25:54;;;;;;;3.23;1.87;;;;;;;-145.23;100.00;58621.06;5001790;28;20240;-52
2022/10/09 00:28:21;;;;;;;4.03;1.70;;;;;;;-145.23;100.00;58621.06;4993008;28;20238;-53
2022/10/09 00:30:48;;;;;;;2.00;1.50;;;;;;;-145.23;100.00;58621.06;4994002;28;20225;-52
2022/10/09 00:33:15;;;;;;;4.73;1.53;;;;;;;-145.23;100.00;58621.06;4997471;28;20746;-52
2022/10/09 00:35:42;;;;;;;4.80;1.97;;;;;;;-145.23;100.00;58621.06;4996508;28;20230;-52
2022/10/09 00:38:09;;;;;;;4.03;2.53;;;;;;;-145.23;100.00;58621.06;4998273;28;20245;-52
2022/10/09 00:40:36;;;;;;;1.93;1.80;;;;;;;-145.23;100.00;58621.06;4993935;28;20233;-51
2022/10/09 00:43:02;;;;;;;3.30;1.90;;;;;;;-145.23;100.00;58621.06;5000123;28;20241;-52
2022/10/09 00:45:29;;;;;;;3.23;2.27;;;;;;;-145.23;100.00;58621.06;5008520;28;20238;-51
2022/10/09 00:47:59;;;;;;;5.23;2.00;;;;;;;-145.23;100.00;58621.06;4994356;28;20241;-52
2022/10/09 00:50:31;;;;;;;2.97;2.00;;;;;;;-145.23;100.00;58621.06;4990149;28;20707;-52
2022/10/09 00:52:59;;;;;;;4.17;1.80;;;;;;;-145.23;100.00;58621.06;4999941;28;20237;-52
2022/10/09 00:55:28;;;;;;;4.30;2.53;;;;;;;-145.23;100.00;58621.06;4995564;28;20317;-51
2022/10/09 00:57:57;;;;;;;6.67;2.00;;;;;;;-145.23;100.00;58621.06;5002302;28;20264;-52
2022/10/09 01:00:24;;;;;;;3.30;2.03;;;;;;;-145.23;100.00;58621.06;5005137;28;20229;-52
2022/10/09 01:02:51;;;;;;;2.67;1.67;;;;;;;-145.23;100.00;58621.06;5005503;28;20237;-52
2022/10/09 01:05:20;;;;;;;2.27;1.93;;;;;;;-145.23;100.00;58621.06;5000042;28;20238;-52
2022/10/09 01:07:50;;;;;;;4.70;2.17;;;;;;;-145.23;100.00;58621.06;5030418;28;20224;-52
2022/10/09 01:10:26;;;;;;;2.37;1.93;;;;;;;-145.23;100.00;58621.06;5029914;28;20224;-53
2022/10/09 01:13:01;;;;;;;3.57;1.60;;;;;;;-145.23;100.00;58621.06;5037797;28;20307;-53
2022/10/09 01:15:32;;;;;;;3.20;1.43;;;;;;;-145.23;100.00;58621.06;5029834;28;20325;-52
2022/10/09 01:18:04;;;;;;;3.83;2.03;;;;;;;-145.23;100.00;58621.06;5028863;28;20314;-52
2022/10/09 01:20:38;;;;;;;5.23;2.27;;;;;;;-145.23;100.00;58621.06;5026658;28;20237;-52
2022/10/09 01:23:52;;;;;;;4.30;2.17;;;;;;;-145.23;100.00;58621.06;5014046;28;20870;-54
2022/10/09 01:26:32;;;;;;;4.73;1.90;;;;;;;-145.23;100.00;58621.06;5009311;28;20236;-53
2022/10/09 01:29:06;;;;;;;4.20;1.80;;;;;;;-145.23;100.00;58621.06;5014389;28;20247;-52
2022/10/09 01:31:37;;;;;;;1.87;1.57;;;;;;;-145.23;100.00;58621.06;4994696;28;20314;-53
2022/10/09 01:34:05;;;;;;;5.87;1.70;;;;;;;-145.23;100.00;58621.06;4994034;28;20237;-52
2022/10/09 01:36:32;;;;;;;2.47;1.80;;;;;;;-145.23;100.00;58621.06;4989376;28;21852;-53
2022/10/09 01:39:02;;;;;;;6.60;1.70;;;;;;;-145.23;100.00;58621.06;5023176;28;20232;-52
2022/10/09 01:41:29;;;;;;;3.10;1.60;;;;;;;-145.23;100.00;58621.06;5012740;28;20264;-52
2022/10/09 01:43:56;;;;;;;5.27;1.83;;;;;;;-145.23;100.00;58621.06;5020586;28;20734;-53
2022/10/09 01:46:26;;;;;;;4.93;2.70;;;;;;;-145.23;100.00;58621.06;5018561;28;20726;-52
2022/10/09 01:49:02;;;;;;;2.70;1.43;;;;;;;-145.23;100.00;58621.06;5018622;28;20327;-52
2022/10/09 01:51:34;;;;;;;5.43;2.13;;;;;;;-145.23;100.00;58621.06;5014959;28;20283;-52
2022/10/09 01:54:02;;;;;;;2.90;2.17;;;;;;;-145.23;100.00;58621.06;4996394;28;20241;-52
2022/10/09 01:56:33;;;;;;;4.27;2.13;;;;;;;-145.23;100.00;58621.06;5004924;28;20252;-53
2022/10/09 01:59:02;;;;;;;3.13;2.13;;;;;;;-145.23;100.00;58621.06;4999933;28;20703;-52
2022/10/09 02:01:32;;;;;;;1.80;1.70;;;;;;;-145.23;100.00;58621.06;4998939;28;20236;-53
2022/10/09 02:04:01;;;;;;;7.87;2.27;;;;;;;-145.23;100.00;58621.06;4994499;28;20229;-52
2022/10/09 02:06:30;;;;;;;2.77;1.37;;;;;;;-145.23;100.00;58621.06;5005970;28;20676;-52
2022/10/09 02:08:56;;;;;;;5.30;2.00;;;;;;;-145.23;100.00;58621.06;5004755;28;20705;-53
2022/10/09 02:11:26;;;;;;;3.57;1.90;;;;;;;-145.23;100.00;58621.06;4994131;28;20775;-52
2022/10/09 02:13:53;;;;;;;4.30;1.70;;;;;;;-145.23;100.00;58621.06;5003400;28;20318;-52
2022/10/09 02:16:23;;;;;;;8.60;2.70;;;;;;;-145.23;100.00;58621.06;5000044;28;20244;-52
2022/10/09 02:18:56;;;;;;;2.70;1.83;;;;;;;-145.23;100.00;58621.06;4996282;28;20291;-54
2022/10/09 02:21:24;;;;;;;1.53;1.33;;;;;;;-145.23;100.00;58621.06;4993373;28;20733;-53
2022/10/09 02:23:51;;;;;;;4.70;1.90;;;;;;;-145.23;100.00;58621.06;4998039;28;20246;-53
2022/10/09 02:26:18;;;;;;;4.97;2.17;;;;;;;-145.23;100.00;58621.06;4999467;28;20249;-52
2022/10/09 02:28:45;;;;;;;5.23;1.90;;;;;;;-145.23;100.00;58621.06;4998941;28;20252;-53
2022/10/09 02:31:16;;;;;;;4.57;1.83;;;;;;;-145.23;100.00;58621.06;4996841;28;20685;-53
2022/10/09 02:33:43;;;;;;;3.80;1.90;;;;;;;-145.23;100.00;58621.06;5021074;28;20243;-53
2022/10/09 02:36:13;;;;;;;3.37;1.67;;;;;;;-145.23;100.00;58621.06;4991888;28;20660;-53
2022/10/09 02:38:39;;;;;;;2.33;1.53;;;;;;;-145.23;100.00;58621.06;5002680;28;20718;-52
2022/10/09 02:41:06;;;;;;;4.87;1.77;;;;;;;-145.23;100.00;58621.06;4990758;28;20241;-52
2022/10/09 02:43:33;;;;;;;3.93;1.90;;;;;;;-145.23;100.00;58621.06;5000183;28;20239;-51
2022/10/09 02:46:00;;;;;;;8.83;2.97;;;;;;;-145.23;100.00;58621.06;5013382;28;20243;-52
2022/10/09 02:48:27;;;;;;;2.23;1.47;;;;;;;-145.23;100.00;58621.06;5020500;28;20240;-51
2022/10/09 02:50:54;;;;;;;4.47;2.20;;;;;;;-145.23;100.00;58621.06;5015417;28;20225;-52
2022/10/09 02:53:23;;;;;;;2.73;1.83;;;;;;;-145.23;100.00;58621.06;4999234;28;20226;-52
2022/10/09 02:55:50;;;;;;;2.53;1.57;;;;;;;-145.23;100.00;58621.06;5001834;28;20708;-54
2022/10/09 02:58:16;;;;;;;5.47;1.67;;;;;;;-145.23;100.00;58621.06;4995904;28;20770;-51
2022/10/09 03:00:43;;;;;;;5.30;2.23;;;;;;;-145.23;100.00;58621.06;4994339;28;20233;-51
2022/10/09 03:03:10;;;;;;;6.10;1.93;;;;;;;-145.23;100.00;58621.06;4995916;28;20731;-52
2022/10/09 03:05:36;;;;;;;3.20;1.57;;;;;;;-145.23;100.00;58621.06;5000987;28;20875;-52
2022/10/09 03:08:03;;;;;;;3.00;1.60;;;;;;;-145.23;100.00;58621.06;5007789;28;20256;-52
2022/10/09 03:10:32;;;;;;;4.67;2.40;;;;;;;-145.23;100.00;58621.06;4994620;28;20287;-52
2022/10/09 03:12:59;;;;;;;3.07;1.90;;;;;;;-145.23;100.00;58621.06;5001688;28;20744;-54
2022/10/09 03:15:25;;;;;;;2.33;1.70;;;;;;;-145.23;100.00;58621.06;5016052;28;20241;-53
2022/10/09 03:17:52;;;;;;;4.27;2.30;;;;;;;-145.23;100.00;58621.06;5024691;28;20937;-53
2022/10/09 03:20:20;;;;;;;2.17;1.60;;;;;;;-145.23;100.00;58621.06;5022253;28;20796;-53
2022/10/09 03:22:46;;;;;;;3.40;1.90;;;;;;;-145.23;100.00;58621.06;5017128;28;20996;-53
2022/10/09 03:25:13;;;;;;;4.63;2.13;;;;;;;-145.23;100.00;58621.06;5016698;28;20240;-52
2022/10/09 03:27:41;;;;;;;4.13;1.77;;;;;;;-145.23;100.00;58621.06;5024144;28;20237;-52
2022/10/09 03:30:09;;;;;;;2.27;1.50;;;;;;;-145.23;100.00;58621.06;5021314;28;20724;-52
2022/10/09 03:32:36;;;;;;;2.30;1.73;;;;;;;-145.23;100.00;58621.06;5018998;28;20229;-52
2022/10/09 03:35:03;;;;;;;2.47;1.70;;;;;;;-145.23;100.00;58621.06;5024703;28;20239;-52
2022/10/09 03:37:30;;;;;;;4.00;1.50;;;;;;;-145.23;100.00;58621.06;5031901;28;20242;-57
2022/10/09 03:39:57;;;;;;;4.23;1.70;;;;;;;-145.23;100.00;58621.06;5038629;28;20224;-52
2022/10/09 03:42:24;;;;;;;4.00;1.50;;;;;;;-145.23;100.00;58621.06;5033294;28;20240;-52
2022/10/09 03:44:52;;;;;;;4.23;2.20;;;;;;;-145.23;100.00;58621.06;5037227;28;20759;-52
2022/10/09 03:47:18;;;;;;;2.23;2.03;;;;;;;-145.23;100.00;58621.06;5022394;28;20233;-54
2022/10/09 03:49:45;;;;;;;2.13;1.33;;;;;;;-145.23;100.00;58621.06;5013509;28;20313;-52
2022/10/09 03:52:12;;;;;;;3.80;1.53;;;;;;;-145.23;100.00;58621.06;5009176;28;20232;-54
2022/10/09 03:54:39;;;;;;;6.80;2.03;;;;;;;-145.23;100.00;58621.06;5015638;28;20299;-56
2022/10/09 03:57:06;;;;;;;5.97;2.57;;;;;;;-145.23;100.00;58621.06;5033847;28;20237;-52
2022/10/09 03:59:33;;;;;;;6.73;1.93;;;;;;;-145.23;100.00;58621.06;5006729;28;20248;-51
2022/10/09 04:02:01;;;;;;;4.90;3.03;;;;;;;-145.23;100.00;58621.06;5004657;28;20358;-52
2022/10/09 04:04:27;;;;;;;4.20;1.70;;;;;;;-145.23;100.00;58621.06;5003453;28;20241;-52
2022/10/09 04:06:54;;;;;;;5.80;2.27;;;;;;;-145.23;100.00;58621.06;4997011;28;20324;-52
2022/10/09 04:09:21;;;;;;;5.73;2.13;;;;;;;-145.23;100.00;58621.06;5009998;28;20229;-53
2022/10/09 04:11:50;;;;;;;4.07;1.87;;;;;;;-145.23;100.00;58621.06;5010847;28;20237;-53
2022/10/09 04:14:17;;;;;;;4.67;2.07;;;;;;;-145.23;100.00;58621.06;4991991;28;20336;-53
2022/10/09 04:16:44;;;;;;;6.10;2.27;;;;;;;-145.23;100.00;58621.06;4993655;28;20411;-53
2022/10/09 04:19:12;;;;;;;2.23;1.90;;;;;;;-145.23;100.00;58621.06;4996136;28;20881;-52
2022/10/09 04:21:38;;;;;;;3.93;2.23;;;;;;;-145.23;100.00;58621.06;5009549;28;20233;-56
2022/10/09 04:24:07;;;;;;;3.97;2.17;;;;;;;-145.23;100.00;58621.06;5001743;28;20380;-52
2022/10/09 04:26:34;;;;;;;3.20;1.27;;;;;;;-145.23;100.00;58621.06;5005919;28;20245;-52
2022/10/09 04:29:01;;;;;;;3.50;1.67;;;;;;;-145.23;100.00;58621.06;5012997;28;20241;-52
2022/10/09 04:31:28;;;;;;;3.27;1.97;;;;;;;-145.23;100.00;58621.06;5014386;28;20231;-52
2022/10/09 04:33:55;;;;;;;5.10;2.00;;;;;;;-145.23;100.00;58621.06;5003454;28;20230;-53
2022/10/09 04:36:23;;;;;;;3.80;2.17;;;;;;;-145.23;100.00;58621.06;5013865;28;20228;-53
2022/10/09 04:38:51;;;;;;;2.90;2.20;;;;;;;-145.23;100.00;58621.06;5023688;28;20232;-53
2022/10/09 04:41:18;;;;;;;2.50;1.90;;;;;;;-145.23;100.00;58621.06;5020211;28;20232;-53
2022/10/09 04:43:44;;;;;;;3.50;2.57;;;;;;;-145.23;100.00;58621.06;5010536;28;20229;-53
2022/10/09 04:46:12;;;;;;;4.97;2.10;;;;;;;-145.23;100.00;58621.06;5004282;28;20726;-52
2022/10/09 04:48:40;;;;;;;2.30;2.00;;;;;;;-145.23;100.00;58621.06;4992701;28;20236;-53
2022/10/09 04:51:07;;;;;;;2.33;1.57;;;;;;;-145.23;100.00;58621.06;4994967;28;20244;-53
2022/10/09 04:53:39;;;;;;;4.97;2.47;;;;;;;-145.23;100.00;58621.06;4998139;28;20234;-53
2022/10/09 04:56:07;;;;;;;4.90;1.93;;;;;;;-145.23;100.00;58621.06;4995903;28;20376;-52
2022/10/09 04:58:35;;;;;;;2.20;1.87;;;;;;;-145.23;100.00;58621.06;5007531;28;20259;-52
2022/10/09 05:01:06;;;;;;;7.13;2.03;;;;;;;-145.23;100.00;58621.06;4999024;28;20270;-51
2022/10/09 05:03:33;;;;;;;4.33;2.07;;;;;;;-145.23;100.00;58621.06;4995236;28;20229;-52
2022/10/09 05:06:01;;;;;;;2.30;1.93;;;;;;;-145.23;100.00;58621.06;5012232;28;20237;-52
2022/10/09 05:08:28;;;;;;;7.43;1.77;;;;;;;-145.23;100.00;58621.06;5007044;28;20273;-52
2022/10/09 05:11:01;;;;;;;5.20;2.37;;;;;;;-145.23;100.00;58621.06;5002002;28;20231;-52
2022/10/09 05:13:30;;;;;;;3.23;2.60;;;;;;;-145.23;100.00;58621.06;4991377;28;20237;-53
2022/10/09 05:15:56;;;;;;;4.10;2.00;;;;;;;-145.23;100.00;58621.06;5004612;28;20234;-52
2022/10/09 05:18:23;;;;;;;5.30;2.27;;;;;;;-145.23;100.00;58621.06;4998919;28;20234;-52
2022/10/09 05:20:50;;;;;;;5.00;2.17;;;;;;;-145.23;100.00;58621.06;5005015;28;20240;-52
2022/10/09 05:23:17;;;;;;;3.60;1.90;;;;;;;-145.23;100.00;58621.06;5007767;28;20229;-53
2022/10/09 05:25:44;;;;;;;3.10;2.30;;;;;;;-145.23;100.00;58621.06;5001668;28;20229;-53
2022/10/09 05:28:12;;;;;;;6.50;2.60;;;;;;;-145.23;100.00;58621.06;5002990;28;20225;-52
2022/10/09 05:30:41;;;;;;;5.03;2.67;;;;;;;-145.23;100.00;58621.06;4997235;28;20226;-54
2022/10/09 05:33:08;;;;;;;4.10;2.20;;;;;;;-145.23;100.00;58621.06;5000897;28;20257;-52
2022/10/09 05:35:34;;;;;;;6.60;2.03;;;;;;;-145.23;100.00;58621.06;5000173;28;20882;-52
2022/10/09 05:38:01;;;;;;;4.23;2.10;;;;;;;-145.23;100.00;58621.06;4996857;28;20284;-53
2022/10/09 05:40:29;;;;;;;6.13;1.97;;;;;;;-145.23;100.00;58621.06;5011286;28;20229;-53
2022/10/09 05:42:56;;;;;;;3.80;2.27;;;;;;;-145.23;100.00;58621.06;5000415;28;20244;-53
2022/10/09 05:45:24;;;;;;;4.43;2.10;;;;;;;-145.23;100.00;58621.06;5001088;28;20230;-52
2022/10/09 05:47:51;;;;;;;6.03;2.03;;;;;;;-145.23;100.00;58621.06;4997070;28;20229;-57
2022/10/09 05:50:18;;;;;;;5.93;2.57;;;;;;;-145.23;100.00;58621.06;5004361;28;20237;-53
2022/10/09 05:52:45;;;;;;;6.73;2.80;;;;;;;-145.23;100.00;58621.06;5007099;28;20229;-53
2022/10/09 05:55:12;;;;;;;7.10;2.20;;;;;;;-145.23;100.00;58621.06;5004295;28;20237;-53
2022/10/09 05:57:38;;;;;;;2.13;1.93;;;;;;;-145.23;100.00;58621.06;4999840;28;20324;-53
2022/10/09 06:00:06;;;;;;;4.00;2.30;;;;;;;-145.23;100.00;58621.06;4988841;28;20700;-53
2022/10/09 06:02:34;;;;;;;4.83;2.30;;;;;;;-145.23;100.00;58621.06;5003005;28;20233;-53
2022/10/09 06:05:02;;;;;;;6.30;2.37;;;;;;;-145.23;100.00;58621.06;5004563;28;20729;-53
2022/10/09 06:07:29;;;;;;;2.93;2.40;;;;;;;-145.23;100.00;58621.06;4996865;28;20229;-53
2022/10/09 06:09:55;;;;;;;3.23;2.10;;;;;;;-145.23;100.00;58621.06;4999082;28;20235;-53
2022/10/09 06:12:22;;;;;;;5.00;2.17;;;;;;;-145.23;100.00;58621.06;4986724;28;20931;-53
2022/10/09 06:14:49;;;;;;;5.57;2.40;;;;;;;-145.23;100.00;58621.06;4996167;28;20312;-53
2022/10/09 06:17:16;;;;;;;3.63;2.63;;;;;;;-145.23;100.00;58621.06;4999781;28;20237;-53
2022/10/09 06:19:44;;;;;;;2.90;2.67;;;;;;;-145.23;100.00;58621.06;4999738;28;20241;-53
2022/10/09 06:22:11;;;;;;;5.77;2.87;;;;;;;-145.23;100.00;58621.06;4995162;28;20247;-53
2022/10/09 06:24:39;;;;;;;5.77;2.50;;;;;;;-145.23;100.00;58621.06;4996694;28;20272;-53
2022/10/09 06:27:06;;;;;;;5.40;2.70;;;;;;;-145.23;100.00;58621.06;5001677;28;20241;-53
2022/10/09 06:29:33;;;;;;;4.70;2.40;;;;;;;-145.23;100.00;58621.06;5012932;28;20247;-53
2022/10/09 06:32:00;;;;;;;8.00;2.50;;;;;;;-145.23;100.00;58621.06;5008132;28;20241;-53
2022/10/09 06:34:27;;;;;;;6.33;2.53;;;;;;;-145.23;100.00;58621.06;5003539;28;20236;-53
2022/10/09 06:36:55;;;;;;;3.10;2.07;;;;;;;-145.23;100.00;58621.06;4992895;28;20316;-53
2022/10/09 06:39:22;;;;;;;5.87;2.63;;;;;;;-145.23;100.00;58621.06;4997556;28;20344;-53
2022/10/09 06:41:49;;;;;;;5.83;2.43;;;;;;;-145.23;100.00;58621.06;4999353;28;20233;-53
2022/10/09 06:44:16;;;;;;;3.90;2.37;;;;;;;-145.23;100.00;58621.06;5005097;28;20284;-53
2022/10/09 06:46:44;;;;;;;8.77;3.60;;;;;;;-145.23;100.00;58621.06;4993645;28;20899;-54
2022/10/09 06:49:11;;;;;;;3.40;2.27;;;;;;;-145.23;100.00;58621.06;5002024;28;20229;-53
2022/10/09 06:51:38;;;;;;;4.13;2.30;;;;;;;-145.23;100.00;58621.06;4999178;28;20233;-53
2022/10/09 06:54:12;;;;;;;3.43;2.57;;;;;;;-145.23;100.00;58621.06;5004179;28;20236;-53
2022/10/09 06:56:39;;;;;;;7.40;3.00;;;;;;;-145.23;100.00;58621.06;5001283;28;20699;-53
2022/10/09 06:59:07;;;;;;;6.20;2.80;;;;;;;-145.23;100.00;58621.06;4998690;28;20237;-52
2022/10/09 07:01:34;;;;;;;3.70;2.03;;;;;;;-145.23;100.00;58621.06;4994566;28;20244;-53
2022/10/09 07:04:02;;;;;;;5.23;2.60;;;;;;;-145.23;100.00;58621.06;5000394;28;20880;-53
2022/10/09 07:06:31;;;;;;;2.87;2.67;;;;;;;-145.23;100.00;58621.06;4996999;28;22775;-53
2022/10/09 07:09:00;;;;;;;4.93;2.50;;;;;;;-145.23;100.00;58621.06;5003852;28;20243;-54
2022/10/09 07:11:30;;;;;;;6.80;2.40;;;;;;;-145.23;100.00;58621.06;5003202;28;20312;-53
2022/10/09 07:13:58;;;;;;;4.23;2.33;;;;;;;-145.23;100.00;58621.06;5001725;28;20241;-53
2022/10/09 07:16:26;;;;;;;3.73;2.53;;;;;;;-145.23;100.00;58621.06;5003716;28;20730;-54
2022/10/09 07:18:53;;;;;;;6.20;3.57;;;;;;;-145.23;100.00;58621.06;5003972;28;20229;-52
2022/10/09 07:21:20;;;;;;;5.47;2.90;;;;;;;-145.23;100.00;58621.06;5012520;28;20237;-52
2022/10/09 07:23:47;;;;;;;6.00;2.60;;;;;;;-145.23;100.00;58621.06;4995795;28;20233;-53
2022/10/09 07:26:16;;;;;;;7.83;3.23;;;;;;;-145.23;100.00;58621.06;4990659;28;20653;-52
2022/10/09 07:28:44;;;;;;;9.53;2.67;;;;;;;-145.23;100.00;58621.06;5003586;28;20237;-52
2022/10/09 07:31:11;;;;;;;4.20;2.77;;;;;;;-145.23;100.00;58621.06;4996509;28;20233;-52
2022/10/09 07:33:38;;;;;;;5.30;2.43;;;;;;;-145.23;100.00;58621.06;5002520;28;20923;-52
2022/10/09 07:36:06;;;;;;;8.83;2.93;;;;;;;-145.23;100.00;58621.06;5014728;28;20287;-53
2022/10/09 07:38:32;;;;;;;6.63;2.70;;;;;;;-145.23;100.00;58621.06;5010573;28;20236;-53
2022/10/09 07:40:59;;;;;;;3.47;2.47;;;;;;;-145.23;100.00;58621.06;5021211;28;20290;-53
2022/10/09 07:43:26;;;;;;;7.63;2.60;;;;;;;-145.23;100.00;58621.06;5019929;28;20683;-53
2022/10/09 07:45:58;;;;;;;2.83;2.53;;;;;;;-145.23;100.00;58621.06;5001409;28;20233;-52
2022/10/09 07:48:24;;;;;;;6.50;2.67;;;;;;;-145.23;100.00;58621.06;4993302;28;20778;-52
2022/10/09 07:50:51;;;;;;;5.23;2.77;;;;;;;-145.23;100.00;58621.06;5000827;28;20233;-53
2022/10/09 07:53:17;;;;;;;4.83;2.60;;;;;;;-145.23;100.00;58621.06;5012267;28;20233;-52
2022/10/09 07:55:44;;;;;;;3.83;2.53;;;;;;;-145.23;100.00;58621.06;5029553;28;20235;-53
2022/10/09 07:58:11;;;;;;;5.73;2.57;;;;;;;-145.23;100.00;58621.06;5006940;28;20241;-53
2022/10/09 08:00:37;;;;;;;2.97;2.13;;;;;;;-145.23;100.00;58621.06;5002103;28;20247;-52
2022/10/09 08:03:05;;;;;;;6.10;2.50;;;;;;;-145.23;100.00;58621.06;4997322;28;20233;-53
2022/10/09 08:05:31;;;;;;;4.10;2.33;;;;;;;-145.23;100.00;58621.06;5004497;28;20241;-53
2022/10/09 08:07:58;;;;;;;4.07;2.43;;;;;;;-145.23;100.00;58621.06;5008603;28;20331;-52
2022/10/09 08:10:25;;;;;;;6.83;2.50;;;;;;;-145.23;100.00;58621.06;5021568;28;20241;-51
2022/10/09 08:12:52;;;;;;;8.37;2.77;;;;;;;-145.23;100.00;58621.06;5025062;28;20315;-53
2022/10/09 08:15:18;;;;;;;6.63;2.13;;;;;;;-145.23;100.00;58621.06;5022736;28;20240;-53
2022/10/09 08:17:45;;;;;;;8.53;2.83;;;;;;;-145.23;100.00;58621.06;5019111;28;20587;-54
2022/10/09 08:20:13;;;;;;;2.90;2.20;;;;;;;-145.23;100.00;58621.06;4998417;28;20781;-51
2022/10/09 08:22:40;;;;;;;3.17;2.30;;;;;;;-145.23;100.00;58621.06;5004013;28;20237;-52
2022/10/09 08:25:07;;;;;;;7.03;3.03;;;;;;;-145.23;100.00;58621.06;5025688;28;20260;-53
2022/10/09 08:27:34;;;;;;;7.33;2.43;;;;;;;-145.23;100.00;58621.06;5025511;28;20247;-53
2022/10/09 08:30:01;;;;;;;10.13;2.23;;;;;;;-145.23;100.00;58621.06;5019078;28;20237;-52
2022/10/09 08:32:28;;;;;;;6.83;2.60;;;;;;;-145.23;100.00;58621.06;5032596;28;20235;-52
2022/10/09 08:34:54;;;;;;;5.25;2.10;;;;;;;-145.23;100.00;58621.06;5023506;28;20237;-52
2022/10/09 08:37:22;;;;;;;4.63;2.23;;;;;;;-145.23;100.00;58621.06;5025359;28;20320;-52
2022/10/09 08:39:49;;;;;;;4.80;2.42;;;;;;;-145.23;100.00;58621.06;5024397;28;20736;-52
2022/10/09 08:42:27;;;;;;;2.88;1.85;;;;;;;-145.23;100.00;58621.06;5018347;28;20253;-51
2022/10/09 08:44:57;;;;;;;4.45;2.13;;;;;;;-145.23;100.00;58621.06;4999191;28;20241;-51
2022/10/09 08:47:26;;;;;;;5.32;2.38;;;;;;;-145.23;100.00;58621.06;5004024;28;20237;-51
2022/10/09 08:49:55;;;;;;;3.10;1.65;;;;;;;-145.23;100.00;58621.06;5005134;28;20261;-52
2022/10/09 08:52:35;;;;;;;7.63;2.35;;;;;;;-145.23;100.00;58621.06;5002834;28;20654;-52
2022/10/09 08:55:10;;;;;;;10.15;1.92;;;;;;;-145.23;100.00;58621.06;5008216;28;20236;-52
2022/10/09 08:57:37;;;;;;;5.13;2.20;;;;;;;-145.23;100.00;58621.06;5022557;28;20239;-52
2022/10/09 09:00:13;;;;;;;5.45;2.15;;;;;;;-145.23;100.00;58621.06;5021320;28;20245;-52
2022/10/09 09:02:51;;;;;;;5.00;2.25;;;;;;;-145.23;100.00;58621.06;5009088;28;20439;-51
2022/10/09 09:05:30;;;;;;;3.47;1.73;;;;;;;-145.23;100.00;58621.06;5028039;28;20240;-52
2022/10/09 09:08:04;;;;;;;5.70;2.25;;;;;;;-145.23;100.00;58621.06;5020663;28;20237;-52
2022/10/09 09:10:36;;;;;;;5.60;2.53;;;;;;;-145.23;100.00;58621.06;5025796;28;20228;-52
2022/10/09 09:13:07;;;;;;;6.57;1.95;;;;;;;-145.23;100.00;58621.06;5021622;28;20233;-52
2022/10/09 09:15:40;;;;;;;6.40;2.15;;;;;;;-145.23;100.00;58621.06;5010291;28;20237;-52
2022/10/09 09:18:18;;;;;;;6.88;2.95;;;;;;;-145.23;100.00;58621.06;4999154;28;20655;-53
2022/10/09 09:20:51;;;;;;;7.10;1.55;;;;;;;-145.23;100.00;58621.06;5041476;28;20357;-52
2022/10/09 09:23:24;;;;;;;5.55;2.05;;;;;;;-145.23;100.00;58621.06;5046097;28;20242;-52
2022/10/09 09:25:50;;;;;;;7.47;1.45;;;;;;;-145.23;100.00;58621.06;5026410;28;20237;-53
2022/10/09 09:28:20;;;;;;;5.07;2.10;;;;;;;-145.23;100.00;58621.06;5027586;28;20271;-53
2022/10/09 09:30:50;;;;;;;5.15;2.33;;;;;;;-145.23;100.00;58621.06;5017055;28;20233;-53
2022/10/09 09:33:21;;;;;;;11.45;2.38;;;;;;;-145.23;100.00;58621.06;5007630;28;20240;-52
2022/10/09 09:35:52;;;;;;;4.68;1.50;;;;;;;-145.23;100.00;58621.06;5008100;28;20778;-52
2022/10/09 09:38:20;;;;;;;5.70;1.90;;;;;;;-145.23;100.00;58621.06;5009823;28;20232;-52
2022/10/09 09:40:47;;;;;;;3.88;1.95;;;;;;;-145.23;100.00;58621.06;5037429;28;20232;-54
2022/10/09 09:43:17;;;;;;;3.85;2.38;;;;;;;-145.23;100.00;58621.06;5020999;28;20232;-53
2022/10/09 09:45:44;;;;;;;8.52;2.33;;;;;;;-145.23;100.00;58621.06;5046212;28;20334;-53
2022/10/09 09:48:14;;;;;;;9.63;2.50;;;;;;;-145.23;100.00;58621.06;5046720;28;20244;-54
2022/10/09 09:50:42;;;;;;;7.40;2.00;;;;;;;-145.23;100.00;58621.06;5030222;28;20242;-54
2022/10/09 09:53:14;;;;;;;5.45;1.92;;;;;;;-145.23;100.00;58621.06;5013443;28;20229;-52
2022/10/09 09:55:42;;;;;;;6.75;2.03;;;;;;;-145.23;100.00;58621.06;5025217;28;20590;-55
2022/10/09 09:58:15;;;;;;;3.50;2.35;;;;;;;-145.23;100.00;58621.06;5025752;28;20802;-53
2022/10/09 10:00:41;;;;;;;5.20;1.88;;;;;;;-145.23;100.00;58621.06;5024302;28;20319;-53
2022/10/09 10:03:14;;;;;;;4.82;2.13;;;;;;;-145.23;100.00;58621.06;5011625;28;20240;-51
2022/10/09 10:05:42;;;;;;;6.40;1.98;;;;;;;-145.23;100.00;58621.06;5025449;28;20247;-54
2022/10/09 10:08:18;;;;;;;4.65;1.92;;;;;;;-145.23;100.00;58621.06;5018550;28;20783;-52
2022/10/09 10:10:47;;;;;;;5.80;1.80;;;;;;;-145.23;100.00;58621.06;5026035;28;20307;-52
2022/10/09 10:13:15;;;;;;;5.38;1.75;;;;;;;-145.23;100.00;58621.06;5017228;28;20405;-52
2022/10/09 10:15:49;;;;;;;5.57;2.20;;;;;;;-145.23;100.00;58621.06;5018841;28;20236;-53
2022/10/09 10:18:17;;;;;;;4.45;1.80;;;;;;;-145.23;100.00;58621.06;5007288;28;20790;-53
2022/10/09 10:20:45;;;;;;;5.20;1.52;;;;;;;-145.23;100.00;58621.06;5019950;28;20717;-53
2022/10/09 10:23:34;;;;;;;3.53;1.42;;;;;;;-145.23;100.00;58621.06;5026816;28;20232;-53
2022/10/09 10:26:07;;;;;;;7.95;1.88;;;;;;;-145.23;100.00;58621.06;5024631;28;20240;-51
2022/10/09 10:28:40;;;;;;;4.10;1.35;;;;;;;-145.23;100.00;58621.06;5028402;28;20240;-51
2022/10/09 10:31:13;;;;;;;6.05;2.13;;;;;;;-145.23;100.00;58621.06;5027784;28;20231;-53
2022/10/09 10:33:41;;;;;;;4.70;1.77;;;;;;;-145.23;100.00;58621.06;5023770;28;20740;-52
2022/10/09 10:36:10;;;;;;;3.83;1.83;;;;;;;-145.23;100.00;58621.06;5020394;28;20295;-51
2022/10/09 10:38:41;;;;;;;4.60;1.85;;;;;;;-145.23;100.00;58621.06;5006825;28;20324;-51
2022/10/09 10:41:14;;;;;;;5.03;1.65;;;;;;;-145.23;100.00;58621.06;5030793;28;20639;-50
2022/10/09 10:43:43;;;;;;;4.20;1.85;;;;;;;-145.23;100.00;58621.06;5029195;28;20723;-52
2022/10/09 10:46:16;;;;;;;2.30;1.50;;;;;;;-145.23;100.00;58621.06;5026573;28;20253;-52
2022/10/09 10:48:45;;;;;;;3.88;1.27;;;;;;;-145.23;100.00;58621.06;5035213;28;20240;-52
2022/10/09 10:51:40;;;;;;;6.05;1.27;;;;;;;-145.23;100.00;58621.06;5033812;28;20240;-52
2022/10/09 10:54:21;;;;;;;2.75;1.38;;;;;;;-145.23;100.00;58621.06;5025180;28;20320;-51
2022/10/09 10:56:53;;;;;;;2.53;1.77;;;;;;;-145.23;100.00;58621.06;5021895;28;20842;-53
2022/10/09 10:59:36;;;;;;;4.53;1.25;;;;;;;-145.23;100.00;58621.06;5025363;28;20309;-53
2022/10/09 11:02:28;;;;;;;3.42;1.15;;;;;;;-145.23;100.00;58621.06;5013550;28;20293;-53
2022/10/09 11:05:00;;;;;;;6.10;1.75;;;;;;;-145.23;100.00;58621.06;5015295;28;20729;-51
2022/10/09 11:07:32;;;;;;;3.70;1.40;;;;;;;-145.23;100.00;58621.06;5021774;28;20297;-51
2022/10/09 11:10:04;;;;;;;4.32;1.83;;;;;;;-145.23;100.00;58621.06;5032254;28;20239;-51
2022/10/09 11:12:37;;;;;;;4.97;1.60;;;;;;;-145.23;100.00;58621.06;5026118;28;20236;-53
2022/10/09 11:15:12;;;;;;;2.60;1.25;;;;;;;-145.23;100.00;58621.06;5025307;28;20232;-51
2022/10/09 11:17:47;;;;;;;2.47;1.20;;;;;;;-145.23;100.00;58621.06;5026706;28;20254;-51